Time;durP1;ratioP1;P1;durP2;ratioP2;P2;SDS_P1;SDS_P2;PMS_P1;PMS_P2;Temp;Humidity;BMP_temperature;BMP_pressure;BME280_temperature;BME280_humidity;BME280_pressure;Samples;Min_cycle;Max_cycle;Signal;HPM_P1;HPM_P2
2021/03/12 00:00:36;;;;;;;3.65;2.13;;;;;;;-3.60;76.25;93765.84;5111596;28;20023;-45
2021/03/12 00:03:02;;;;;;;4.47;2.73;;;;;;;-3.35;78.65;93749.34;5112539;28;20570;-44
2021/03/12 00:05:27;;;;;;;2.53;1.23;;;;;;;-3.14;79.49;93759.94;5115619;28;20394;-46
2021/03/12 00:07:54;;;;;;;2.05;1.95;;;;;;;-3.04;79.80;93770.72;5115417;28;20026;-45
2021/03/12 00:10:22;;;;;;;5.85;3.67;;;;;;;-3.16;77.93;93775.84;5115192;28;20024;-47
2021/03/12 00:12:47;;;;;;;3.88;3.47;;;;;;;-3.15;77.04;93771.97;5115188;28;20114;-45
2021/03/12 00:15:17;;;;;;;4.00;2.28;;;;;;;-3.16;76.78;93770.44;5115258;28;20069;-44
2021/03/12 00:17:44;;;;;;;4.55;4.10;;;;;;;-3.05;77.26;93780.06;5115205;28;20042;-45
2021/03/12 00:20:16;;;;;;;3.20;2.05;;;;;;;-2.99;77.16;93767.44;5114995;28;20070;-44
2021/03/12 00:22:42;;;;;;;4.60;3.15;;;;;;;-2.90;77.10;93751.19;5115021;28;20061;-44
2021/03/12 00:25:11;;;;;;;5.28;3.38;;;;;;;-2.93;77.25;93738.59;5114902;28;20020;-45
2021/03/12 00:27:36;;;;;;;6.75;4.47;;;;;;;-2.89;76.98;93731.06;5115240;28;20468;-44
2021/03/12 00:30:06;;;;;;;3.33;2.97;;;;;;;-2.90;77.30;93735.72;5114953;28;20075;-44
2021/03/12 00:32:32;;;;;;;3.83;3.53;;;;;;;-2.81;77.38;93756.56;5114817;28;20028;-45
2021/03/12 00:34:58;;;;;;;4.88;3.25;;;;;;;-2.88;77.24;93737.97;5114642;28;20554;-44
2021/03/12 00:37:23;;;;;;;7.55;4.00;;;;;;;-2.87;77.58;93737.53;5114706;28;20023;-47
2021/03/12 00:39:49;;;;;;;1.45;1.38;;;;;;;-2.77;77.74;93724.75;5114687;28;20027;-44
2021/03/12 00:42:14;;;;;;;4.70;2.70;;;;;;;-2.69;77.47;93728.59;5114702;28;20546;-46
2021/03/12 00:44:40;;;;;;;2.80;2.60;;;;;;;-2.65;77.56;93726.47;5114533;28;20054;-46
2021/03/12 00:47:05;;;;;;;4.95;2.55;;;;;;;-2.54;76.81;93724.03;5114519;28;20027;-46
2021/03/12 00:49:31;;;;;;;6.40;2.53;;;;;;;-2.57;76.72;93701.38;5114503;28;20031;-44
2021/03/12 00:51:56;;;;;;;6.13;3.80;;;;;;;-2.56;77.32;93696.72;5114342;28;20072;-44
2021/03/12 00:54:22;;;;;;;2.63;2.30;;;;;;;-2.63;78.42;93703.19;5114617;28;20031;-45
2021/03/12 00:56:47;;;;;;;4.95;3.00;;;;;;;-2.62;78.42;93685.75;5114300;28;20088;-44
2021/03/12 00:59:12;;;;;;;6.13;3.45;;;;;;;-2.63;78.48;93676.16;5114322;28;20027;-45
2021/03/12 01:01:38;;;;;;;4.78;2.83;;;;;;;-2.60;78.51;93672.53;5114096;28;20039;-45
2021/03/12 01:04:04;;;;;;;4.50;2.50;;;;;;;-2.42;77.40;93667.03;5114302;28;20031;-44
2021/03/12 01:06:29;;;;;;;2.22;1.85;;;;;;;-2.41;77.32;93687.47;5114347;28;20102;-44
2021/03/12 01:08:54;;;;;;;3.85;2.75;;;;;;;-2.42;77.53;93690.63;5114029;28;20407;-44
2021/03/12 01:11:20;;;;;;;6.20;2.65;;;;;;;-2.42;77.79;93687.91;5114134;28;20027;-45
2021/03/12 01:13:45;;;;;;;4.82;2.45;;;;;;;-2.39;77.33;93678.88;5113828;28;20035;-45
2021/03/12 01:16:11;;;;;;;2.25;2.15;;;;;;;-2.48;77.32;93690.50;5113166;28;20046;-45
2021/03/12 01:18:36;;;;;;;4.43;1.30;;;;;;;-2.52;77.71;93687.22;5113819;28;20104;-45
2021/03/12 01:21:02;;;;;;;2.03;1.35;;;;;;;-2.55;77.57;93687.38;5113858;28;20023;-45
2021/03/12 01:23:27;;;;;;;1.42;1.33;;;;;;;-2.52;77.30;93684.53;5113858;28;20036;-45
2021/03/12 01:25:53;;;;;;;3.10;2.83;;;;;;;-2.46;76.48;93671.13;5113740;28;20035;-44
2021/03/12 01:28:18;;;;;;;1.08;1.05;;;;;;;-2.42;76.00;93666.28;5112055;28;20019;-45
2021/03/12 01:30:46;;;;;;;2.72;2.08;;;;;;;-2.44;75.78;93663.28;5113855;28;20118;-46
2021/03/12 01:33:12;;;;;;;4.77;2.03;;;;;;;-2.40;75.29;93669.28;5113701;28;20450;-44
2021/03/12 01:35:37;;;;;;;2.47;2.20;;;;;;;-2.36;75.18;93680.69;5113745;28;20028;-45
2021/03/12 01:38:03;;;;;;;3.67;3.38;;;;;;;-2.41;76.07;93678.59;5113401;28;20499;-45
2021/03/12 01:40:30;;;;;;;5.50;2.70;;;;;;;-2.27;75.07;93667.09;5113496;28;20061;-44
2021/03/12 01:42:58;;;;;;;2.60;2.13;;;;;;;-2.34;74.70;93673.59;5113562;28;20032;-44
2021/03/12 01:45:30;;;;;;;1.67;1.58;;;;;;;-2.33;74.27;93650.00;5113276;28;20424;-45
2021/03/12 01:47:58;;;;;;;2.65;2.33;;;;;;;-2.28;74.05;93643.97;5113423;28;20076;-44
2021/03/12 01:50:24;;;;;;;2.35;2.13;;;;;;;-2.30;73.00;93651.81;5113205;28;20492;-44
2021/03/12 01:52:49;;;;;;;1.48;1.27;;;;;;;-2.25;72.03;93648.44;5113193;28;20031;-45
2021/03/12 01:55:33;;;;;;;2.33;2.00;;;;;;;-2.22;71.85;93657.59;5094998;28;20031;-44
2021/03/12 01:57:59;;;;;;;3.35;1.88;;;;;;;-2.24;72.13;93660.00;5113273;28;20063;-44
2021/03/12 02:00:25;;;;;;;5.03;3.63;;;;;;;-2.20;72.33;93663.28;5113165;28;20556;-44
2021/03/12 02:02:51;;;;;;;1.83;1.73;;;;;;;-2.18;72.19;93667.03;5113107;28;20039;-45
2021/03/12 02:05:17;;;;;;;2.33;2.13;;;;;;;-2.18;72.25;93656.22;5112990;28;20373;-43
2021/03/12 02:07:43;;;;;;;7.22;2.67;;;;;;;-2.16;71.22;93661.91;5113018;28;20524;-44
2021/03/12 02:10:11;;;;;;;5.80;2.47;;;;;;;-2.09;71.51;93655.41;5112768;28;20032;-46
2021/03/12 02:13:07;;;;;;;2.88;2.15;;;;;;;-2.17;71.01;93662.38;5094788;28;20476;-45
2021/03/12 02:15:38;;;;;;;2.90;2.70;;;;;;;-2.29;70.63;93653.28;5094650;28;20518;-44
2021/03/12 02:18:10;;;;;;;5.57;2.03;;;;;;;-2.21;71.31;93675.31;5094767;28;20417;-43
2021/03/12 02:20:48;;;;;;;4.35;1.38;;;;;;;-2.21;70.97;93684.19;5094533;28;20032;-45
2021/03/12 02:23:38;;;;;;;1.20;1.10;;;;;;;-2.25;70.46;93672.78;5094563;28;20024;-47
2021/03/12 02:26:41;;;;;;;1.83;1.30;;;;;;;-2.29;69.96;93645.16;5112513;28;20426;-47
2021/03/12 02:29:08;;;;;;;1.70;1.60;;;;;;;-2.41;70.55;93641.50;5112558;28;20035;-47
2021/03/12 02:31:35;;;;;;;2.75;1.50;;;;;;;-2.46;71.20;93633.28;5112488;28;20136;-45
2021/03/12 02:34:03;;;;;;;3.05;1.15;;;;;;;-2.48;71.22;93643.78;5112486;28;20051;-45
2021/03/12 02:36:33;;;;;;;1.85;1.60;;;;;;;-2.55;71.33;93647.59;5112449;28;20027;-45
2021/03/12 02:38:59;;;;;;;2.80;1.95;;;;;;;-2.44;71.68;93647.81;5094508;28;20031;-45
2021/03/12 02:41:27;;;;;;;2.30;2.17;;;;;;;-2.48;71.64;93641.84;5112260;28;20028;-44
2021/03/12 02:43:53;;;;;;;1.75;1.65;;;;;;;-2.39;71.29;93641.78;5094246;28;20049;-46
2021/03/12 02:46:19;;;;;;;3.33;1.45;;;;;;;-2.35;71.34;93647.00;5094014;28;20051;-46
2021/03/12 02:48:45;;;;;;;2.00;1.45;;;;;;;-2.40;71.39;93647.63;5094388;28;20503;-46
2021/03/12 02:51:11;;;;;;;1.40;1.30;;;;;;;-2.39;70.30;93632.94;5094128;28;20096;-44
2021/03/12 02:53:37;;;;;;;1.63;1.60;;;;;;;-2.40;69.75;93612.50;5093952;28;20040;-44
2021/03/12 02:56:03;;;;;;;2.10;1.70;;;;;;;-2.44;70.46;93618.09;5093972;28;20020;-45
2021/03/12 02:58:30;;;;;;;1.40;1.30;;;;;;;-2.46;71.07;93617.06;5093949;28;20035;-45
2021/03/12 03:00:55;;;;;;;2.55;0.98;;;;;;;-2.50;70.99;93619.19;5112031;28;20465;-46
2021/03/12 03:03:22;;;;;;;4.72;3.30;;;;;;;-2.54;71.29;93610.50;5112032;28;20028;-46
2021/03/12 03:05:48;;;;;;;1.15;0.90;;;;;;;-2.45;70.78;93624.69;5111979;28;20023;-46
2021/03/12 03:08:13;;;;;;;1.83;1.73;;;;;;;-2.47;71.11;93604.75;5093842;28;20016;-44
2021/03/12 03:10:40;;;;;;;2.70;1.40;;;;;;;-2.53;69.38;93590.34;5111770;28;20028;-44
2021/03/12 03:13:06;;;;;;;5.57;4.10;;;;;;;-2.42;69.94;93604.09;5112209;28;20023;-43
2021/03/12 03:15:32;;;;;;;1.98;1.45;;;;;;;-2.41;69.53;93603.66;5093802;28;20476;-44
2021/03/12 03:17:58;;;;;;;1.65;1.45;;;;;;;-2.43;68.93;93606.09;5093746;28;20032;-44
2021/03/12 03:20:25;;;;;;;2.58;1.55;;;;;;;-2.59;70.02;93616.53;5111867;28;20026;-46
2021/03/12 03:22:51;;;;;;;1.55;1.45;;;;;;;-2.59;70.13;93609.19;5093607;28;20035;-44
2021/03/12 03:25:17;;;;;;;5.03;2.60;;;;;;;-2.44;69.32;93611.94;5111973;28;20027;-43
2021/03/12 03:27:43;;;;;;;4.00;2.58;;;;;;;-2.45;68.84;93602.34;5111920;28;20030;-45
2021/03/12 03:30:10;;;;;;;1.92;1.80;;;;;;;-2.49;69.58;93605.19;5111879;28;20027;-47
2021/03/12 03:32:36;;;;;;;1.80;1.70;;;;;;;-2.50;69.82;93613.78;5111708;28;20084;-44
2021/03/12 03:35:05;;;;;;;4.18;2.75;;;;;;;-2.44;70.12;93612.69;5111881;28;20023;-44
2021/03/12 03:37:30;;;;;;;3.25;2.33;;;;;;;-2.46;70.26;93608.94;5111857;28;20173;-44
2021/03/12 03:39:55;;;;;;;4.13;2.78;;;;;;;-2.52;70.34;93594.56;5115733;28;20504;-46
2021/03/12 03:42:24;;;;;;;5.57;2.75;;;;;;;-2.45;70.29;93594.22;5115789;28;20031;-45
2021/03/12 03:44:49;;;;;;;1.65;1.50;;;;;;;-2.41;70.03;93602.91;5097281;28;20127;-45
2021/03/12 03:47:15;;;;;;;2.10;1.90;;;;;;;-2.38;69.84;93593.84;5097628;28;20062;-46
2021/03/12 03:49:41;;;;;;;1.95;1.48;;;;;;;-2.53;69.21;93588.41;5115691;28;20446;-44
2021/03/12 03:52:08;;;;;;;2.97;1.92;;;;;;;-2.47;68.24;93583.13;5115686;28;20487;-44
2021/03/12 03:54:35;;;;;;;2.70;2.15;;;;;;;-2.51;68.59;93601.47;5097577;28;20028;-44
2021/03/12 03:57:01;;;;;;;5.93;3.33;;;;;;;-2.55;69.34;93612.44;5097373;28;20047;-44
2021/03/12 03:59:27;;;;;;;3.10;2.90;;;;;;;-2.50;68.63;93609.13;5115597;28;20027;-45
2021/03/12 04:01:53;;;;;;;1.60;1.35;;;;;;;-2.48;68.77;93598.59;5097345;28;20497;-44
2021/03/12 04:04:19;;;;;;;2.30;1.85;;;;;;;-2.61;68.91;93584.56;5113861;28;20027;-45
2021/03/12 04:06:45;;;;;;;1.00;0.85;;;;;;;-2.60;68.34;93604.25;5097221;28;20030;-44
2021/03/12 04:09:13;;;;;;;6.97;1.67;;;;;;;-2.58;69.19;93596.41;5097105;28;20023;-44
2021/03/12 04:11:38;;;;;;;1.27;1.17;;;;;;;-2.59;69.50;93601.06;5115176;28;20426;-45
2021/03/12 04:14:04;;;;;;;2.83;1.80;;;;;;;-2.59;69.42;93603.03;5097100;28;20072;-45
2021/03/12 04:16:30;;;;;;;1.85;1.63;;;;;;;-2.76;69.69;93585.72;5096879;28;20023;-43
2021/03/12 04:18:58;;;;;;;2.20;2.00;;;;;;;-2.78;70.54;93591.59;5115084;28;20464;-44
2021/03/12 04:21:24;;;;;;;1.25;1.05;;;;;;;-2.69;69.92;93607.00;5096838;28;20552;-44
2021/03/12 04:23:49;;;;;;;0.80;0.80;;;;;;;-2.73;69.94;93588.25;5096833;28;20389;-44
2021/03/12 04:26:15;;;;;;;1.45;1.20;;;;;;;-2.75;69.20;93571.75;5096671;28;20034;-45
2021/03/12 04:28:41;;;;;;;1.70;1.60;;;;;;;-2.79;69.21;93575.81;5096727;28;20020;-44
2021/03/12 04:31:06;;;;;;;1.08;1.05;;;;;;;-2.81;69.44;93583.63;5096839;28;20031;-45
2021/03/12 04:33:32;;;;;;;1.63;1.52;;;;;;;-2.89;70.14;93587.91;5096845;28;20027;-43
2021/03/12 04:35:58;;;;;;;3.58;3.08;;;;;;;-2.93;70.52;93592.72;5114772;28;20511;-44
2021/03/12 04:38:25;;;;;;;6.70;1.80;;;;;;;-2.98;70.56;93571.75;5096563;28;20062;-45
2021/03/12 04:40:51;;;;;;;4.38;2.13;;;;;;;-2.90;69.85;93581.75;5096607;28;20032;-45
2021/03/12 04:43:16;;;;;;;8.65;2.13;;;;;;;-2.81;69.47;93579.00;5114824;28;20028;-46
2021/03/12 04:45:42;;;;;;;2.10;2.00;;;;;;;-2.82;68.94;93587.56;5114471;28;20089;-44
2021/03/12 04:48:09;;;;;;;3.20;2.45;;;;;;;-2.95;69.81;93578.94;5096504;28;20092;-43
2021/03/12 04:50:34;;;;;;;0.85;0.85;;;;;;;-3.01;69.34;93578.06;5095090;28;20076;-45
2021/03/12 04:53:00;;;;;;;1.15;1.05;;;;;;;-3.01;69.50;93567.28;5096339;28;20032;-44
2021/03/12 04:55:26;;;;;;;2.60;2.05;;;;;;;-3.21;69.94;93557.03;5114336;28;20030;-45
2021/03/12 04:57:51;;;;;;;1.08;1.05;;;;;;;-3.31;70.21;93542.81;5096048;28;20106;-46
2021/03/12 05:00:19;;;;;;;2.00;1.48;;;;;;;-3.21;70.38;93562.44;5114486;28;20023;-46
2021/03/12 05:02:45;;;;;;;0.95;0.75;;;;;;;-3.13;70.50;93577.81;5114360;28;20027;-44
2021/03/12 05:05:11;;;;;;;1.30;0.85;;;;;;;-3.15;70.71;93571.38;5096138;28;20492;-46
2021/03/12 05:07:38;;;;;;;5.18;1.45;;;;;;;-3.21;70.95;93589.41;5113063;28;20027;-45
2021/03/12 05:10:06;;;;;;;2.13;2.03;;;;;;;-3.34;71.44;93589.63;5095660;28;20027;-44
2021/03/12 05:12:31;;;;;;;1.65;1.55;;;;;;;-3.14;70.34;93595.22;5113990;28;20030;-43
2021/03/12 05:14:57;;;;;;;1.73;1.63;;;;;;;-3.16;71.19;93600.34;5113972;28;20023;-44
2021/03/12 05:17:23;;;;;;;8.85;4.47;;;;;;;-3.15;70.50;93587.59;5113922;28;20028;-43
2021/03/12 05:19:49;;;;;;;2.47;1.90;;;;;;;-3.12;70.20;93575.88;5113882;28;20024;-43
2021/03/12 05:22:15;;;;;;;7.70;0.90;;;;;;;-3.13;69.90;93563.56;5113974;28;20015;-46
2021/03/12 05:24:40;;;;;;;0.98;0.98;;;;;;;-3.21;70.61;93546.22;5113300;28;20046;-45
2021/03/12 05:27:07;;;;;;;3.17;1.63;;;;;;;-3.21;71.06;93557.78;5112800;28;20023;-44
2021/03/12 05:29:32;;;;;;;4.60;2.22;;;;;;;-3.15;70.88;93557.88;5113898;28;20057;-44
2021/03/12 05:31:58;;;;;;;0.95;0.93;;;;;;;-3.05;70.58;93564.72;5113813;28;20028;-43
2021/03/12 05:34:24;;;;;;;2.63;1.77;;;;;;;-3.02;70.76;93565.75;5113854;28;20030;-44
2021/03/12 05:36:49;;;;;;;2.70;1.15;;;;;;;-2.86;70.16;93566.13;5113405;28;20411;-46
2021/03/12 05:39:15;;;;;;;2.63;1.30;;;;;;;-2.79;70.24;93567.72;5113488;28;20585;-46
2021/03/12 05:41:41;;;;;;;3.63;2.45;;;;;;;-2.73;69.73;93574.00;5113042;28;20057;-45
2021/03/12 05:44:06;;;;;;;2.60;2.40;;;;;;;-2.67;70.00;93583.72;5112549;28;20106;-44
2021/03/12 05:46:33;;;;;;;2.65;1.67;;;;;;;-2.60;69.87;93582.63;5113395;28;20044;-45
2021/03/12 05:49:00;;;;;;;1.70;1.60;;;;;;;-2.64;70.14;93576.66;5113416;28;20019;-44
2021/03/12 05:51:25;;;;;;;1.52;1.13;;;;;;;-2.51;69.79;93591.41;5095164;28;20055;-45
2021/03/12 05:53:52;;;;;;;8.27;3.30;;;;;;;-2.35;68.22;93566.66;5113157;28;20060;-47
2021/03/12 05:56:18;;;;;;;4.03;2.55;;;;;;;-2.17;69.05;93582.00;5113349;28;20496;-43
2021/03/12 05:58:43;;;;;;;1.02;1.00;;;;;;;-1.99;67.95;93565.56;5093430;28;20019;-44
2021/03/12 06:01:09;;;;;;;3.92;1.73;;;;;;;-1.96;68.17;93580.91;5094518;28;20077;-47
2021/03/12 06:03:34;;;;;;;5.55;3.42;;;;;;;-1.63;68.14;93589.59;5094825;28;20050;-44
2021/03/12 06:06:00;;;;;;;3.33;2.67;;;;;;;-1.55;66.49;93568.28;5113069;28;20415;-46
2021/03/12 06:08:25;;;;;;;5.10;2.25;;;;;;;-1.40;65.87;93579.84;5112770;28;20015;-45
2021/03/12 06:10:51;;;;;;;3.50;1.83;;;;;;;-1.39;66.37;93581.38;5112921;28;20027;-45
2021/03/12 06:13:16;;;;;;;1.60;1.50;;;;;;;-1.29;65.89;93582.75;5111781;28;20038;-46
2021/03/12 06:15:48;;;;;;;5.72;2.25;;;;;;;-1.17;65.42;93578.25;5112389;28;20094;-44
2021/03/12 06:18:14;;;;;;;1.05;0.95;;;;;;;-1.18;65.93;93582.16;5094340;28;20408;-47
2021/03/12 06:20:39;;;;;;;2.42;2.22;;;;;;;-1.02;65.99;93589.81;5112804;28;20024;-45
2021/03/12 06:23:05;;;;;;;8.85;2.10;;;;;;;-0.78;65.61;93603.94;5112737;28;20465;-44
2021/03/12 06:25:30;;;;;;;3.40;3.10;;;;;;;-0.57;65.28;93613.59;5112753;28;20030;-44
2021/03/12 06:28:12;;;;;;;3.95;2.88;;;;;;;-0.37;65.56;93616.28;5111220;28;20012;-45
2021/03/12 06:30:37;;;;;;;1.60;1.50;;;;;;;-0.23;65.10;93604.66;5112595;28;20617;-44
2021/03/12 06:33:03;;;;;;;5.15;2.53;;;;;;;-0.21;63.22;93591.34;5112475;28;20064;-47
2021/03/12 06:35:35;;;;;;;2.15;1.75;;;;;;;-0.22;62.98;93610.81;5112256;28;20023;-45
2021/03/12 06:38:10;;;;;;;1.55;1.27;;;;;;;-0.27;62.74;93622.34;5112427;28;20024;-45
2021/03/12 06:40:39;;;;;;;2.30;2.15;;;;;;;-0.32;63.23;93628.44;5111186;28;20022;-44
2021/03/12 06:43:04;;;;;;;;;;;;;;;-0.10;62.96;93636.84;5112497;28;20020;-45
2021/03/12 06:45:32;;;;;;;3.03;2.38;;;;;;;-0.33;63.80;93624.25;5112075;28;20301;-45
2021/03/12 06:48:17;;;;;;;10.88;3.78;;;;;;;-0.12;64.38;93631.91;5112299;28;20019;-45
2021/03/12 06:50:47;;;;;;;2.63;1.48;;;;;;;0.09;64.75;93638.06;5095159;28;20055;-45
2021/03/12 06:53:30;;;;;;;2.67;2.22;;;;;;;-0.10;64.71;93628.72;5110830;28;20101;-45
2021/03/12 06:56:01;;;;;;;2.28;2.03;;;;;;;0.06;63.27;93654.56;5112263;28;20027;-44
2021/03/12 06:58:27;;;;;;;2.00;1.60;;;;;;;-0.18;63.48;93627.66;5112081;28;20050;-44
2021/03/12 07:00:53;;;;;;;1.85;1.75;;;;;;;0.04;63.63;93676.00;5112026;28;20110;-43
2021/03/12 07:03:20;;;;;;;6.63;4.53;;;;;;;0.04;63.41;93676.75;5111368;28;20027;-44
2021/03/12 07:06:04;;;;;;;3.20;2.55;;;;;;;0.29;64.03;93665.19;5111804;28;20080;-45
2021/03/12 07:08:34;;;;;;;5.07;2.95;;;;;;;0.47;63.21;93675.03;5112045;28;20543;-44
2021/03/12 07:11:00;;;;;;;4.47;2.22;;;;;;;0.63;62.07;93682.56;5111824;28;20038;-43
2021/03/12 07:13:26;;;;;;;4.75;2.75;;;;;;;0.84;60.81;93697.63;5110500;28;20065;-44
2021/03/12 07:15:53;;;;;;;8.40;2.53;;;;;;;0.99;61.35;93700.97;5111018;28;20059;-44
2021/03/12 07:18:20;;;;;;;7.68;4.57;;;;;;;1.19;60.24;93692.00;5111959;28;20110;-44
2021/03/12 07:20:45;;;;;;;4.38;2.92;;;;;;;1.05;60.99;93704.50;5111867;28;20054;-44
2021/03/12 07:23:11;;;;;;;10.75;3.60;;;;;;;1.10;61.41;93703.78;5110766;28;20106;-45
2021/03/12 07:25:38;;;;;;;2.30;1.80;;;;;;;1.06;60.59;93703.25;5093256;28;20092;-44
2021/03/12 07:28:05;;;;;;;3.40;2.17;;;;;;;1.20;62.11;93712.50;5111822;28;20023;-46
2021/03/12 07:30:33;;;;;;;4.13;2.55;;;;;;;1.23;61.03;93711.56;5093511;28;20103;-46
2021/03/12 07:32:59;;;;;;;7.23;3.03;;;;;;;1.56;61.14;93708.34;5092651;28;20111;-46
2021/03/12 07:35:26;;;;;;;4.57;3.80;;;;;;;1.75;60.57;93717.63;5093555;28;20334;-45
2021/03/12 07:37:53;;;;;;;4.30;2.40;;;;;;;1.93;59.49;93706.34;5111168;28;20553;-45
2021/03/12 07:40:20;;;;;;;6.10;2.97;;;;;;;1.92;58.30;93696.69;5092358;28;20488;-43
2021/03/12 07:42:46;;;;;;;5.38;3.17;;;;;;;2.11;58.23;93714.13;5111660;28;20031;-45
2021/03/12 07:45:12;;;;;;;7.07;3.35;;;;;;;2.30;58.02;93707.03;5092042;28;20500;-46
2021/03/12 07:47:38;;;;;;;3.40;2.70;;;;;;;2.16;58.33;93724.31;5111242;28;20100;-45
2021/03/12 07:50:22;;;;;;;6.40;4.85;;;;;;;2.11;58.76;93711.41;5110817;28;20020;-45
2021/03/12 07:52:50;;;;;;;3.20;2.22;;;;;;;2.17;58.55;93709.44;5111341;28;20111;-44
2021/03/12 07:55:37;;;;;;;3.50;1.80;;;;;;;2.13;57.41;93714.38;5110282;28;20407;-47
2021/03/12 07:58:04;;;;;;;7.00;3.25;;;;;;;2.29;58.79;93711.75;5110373;28;20035;-45
2021/03/12 08:00:29;;;;;;;4.13;2.60;;;;;;;2.45;58.92;93699.41;5092327;28;20059;-44
2021/03/12 08:03:00;;;;;;;10.30;3.58;;;;;;;2.66;57.73;93703.47;5110515;28;20109;-45
2021/03/12 08:05:37;;;;;;;4.47;2.08;;;;;;;2.92;55.66;93697.81;5111559;28;20519;-45
2021/03/12 08:08:04;;;;;;;3.45;2.00;;;;;;;3.08;55.92;93697.84;5111434;28;20030;-44
2021/03/12 08:10:29;;;;;;;2.25;2.08;;;;;;;3.26;55.22;93696.59;5111501;28;20458;-44
2021/03/12 08:12:55;;;;;;;3.42;2.25;;;;;;;3.20;54.30;93686.94;5093307;28;20072;-44
2021/03/12 08:15:23;;;;;;;2.05;1.95;;;;;;;2.89;55.11;93687.88;5093404;28;20026;-45
2021/03/12 08:17:57;;;;;;;2.45;2.25;;;;;;;3.33;55.46;93679.00;5111392;28;20034;-46
2021/03/12 08:20:23;;;;;;;2.17;1.92;;;;;;;3.53;53.50;93673.28;5111285;28;20028;-44
2021/03/12 08:22:53;;;;;;;2.22;1.35;;;;;;;3.97;53.36;93673.19;5111182;28;20065;-44
2021/03/12 08:25:36;;;;;;;5.18;2.35;;;;;;;4.33;52.71;93679.56;5114159;28;20027;-46
2021/03/12 08:28:07;;;;;;;3.08;2.65;;;;;;;4.69;53.07;93678.41;5114866;28;20043;-46
2021/03/12 08:30:36;;;;;;;3.65;2.38;;;;;;;4.94;50.22;93668.31;5114984;28;20046;-45
2021/03/12 08:33:08;;;;;;;2.42;1.98;;;;;;;4.94;48.90;93668.31;5114875;28;20114;-46
2021/03/12 08:35:42;;;;;;;4.15;2.42;;;;;;;5.11;48.95;93666.94;5114857;28;20081;-45
2021/03/12 08:38:10;;;;;;;1.98;1.55;;;;;;;5.65;48.04;93661.53;5114818;28;20075;-44
2021/03/12 08:40:35;;;;;;;3.05;2.30;;;;;;;5.69;47.33;93661.28;5114281;28;20164;-45
2021/03/12 08:43:04;;;;;;;1.75;1.63;;;;;;;5.69;47.92;93666.75;5113569;28;20079;-45
2021/03/12 08:45:40;;;;;;;3.03;1.95;;;;;;;5.77;47.86;93643.00;5114509;28;20051;-46
2021/03/12 08:48:06;;;;;;;2.60;1.92;;;;;;;6.08;46.17;93654.19;5114548;28;20489;-46
2021/03/12 08:50:34;;;;;;;3.60;2.17;;;;;;;6.24;46.49;93665.50;5114553;28;20054;-45
2021/03/12 08:52:59;;;;;;;3.65;2.13;;;;;;;6.51;45.35;93686.38;5114581;28;20090;-48
2021/03/12 08:55:25;;;;;;;2.85;1.83;;;;;;;6.22;45.21;93668.72;5114585;28;20164;-47
2021/03/12 08:57:51;;;;;;;4.53;2.03;;;;;;;6.17;45.67;93660.59;5114360;28;20016;-46
2021/03/12 09:00:16;;;;;;;2.17;1.88;;;;;;;6.32;46.36;93653.44;5114268;28;20024;-45
2021/03/12 09:02:42;;;;;;;3.78;2.10;;;;;;;6.29;46.59;93640.75;5114642;28;20523;-46
2021/03/12 09:05:27;;;;;;;2.17;1.63;;;;;;;7.36;43.26;93641.53;5096134;28;20076;-47
2021/03/12 09:07:56;;;;;;;4.43;2.38;;;;;;;7.84;42.77;93651.50;5114320;28;20008;-45
2021/03/12 09:10:26;;;;;;;1.70;1.60;;;;;;;8.22;40.63;93656.28;5114213;28;20024;-47
2021/03/12 09:12:51;;;;;;;3.60;2.50;;;;;;;8.71;40.01;93645.59;5114097;28;20261;-45
2021/03/12 09:15:26;;;;;;;6.65;2.97;;;;;;;9.24;39.59;93643.44;5114152;28;20031;-45
2021/03/12 09:17:56;;;;;;;3.55;2.00;;;;;;;9.30;38.45;93641.31;5114102;28;20081;-46
2021/03/12 09:20:22;;;;;;;3.20;1.73;;;;;;;9.94;36.91;93652.53;5114014;28;20019;-47
2021/03/12 09:22:56;;;;;;;2.83;2.20;;;;;;;10.44;35.80;93640.22;5113954;28;20590;-45
2021/03/12 09:25:29;;;;;;;3.65;2.13;;;;;;;11.13;34.70;93642.03;5113914;28;20027;-46
2021/03/12 09:28:04;;;;;;;5.82;1.73;;;;;;;12.03;33.12;93642.22;5113925;28;20031;-45
2021/03/12 09:30:40;;;;;;;8.15;4.00;;;;;;;13.12;31.35;93626.31;5113795;28;20468;-45
2021/03/12 09:33:08;;;;;;;4.95;2.10;;;;;;;13.69;30.56;93630.59;5113615;28;20030;-45
2021/03/12 09:35:40;;;;;;;2.47;2.13;;;;;;;14.10;28.72;93625.66;5112780;28;20080;-46
2021/03/12 09:38:25;;;;;;;3.35;2.33;;;;;;;15.22;29.66;93628.66;5113387;28;20027;-48
2021/03/12 09:40:50;;;;;;;3.75;2.03;;;;;;;15.62;27.43;93626.28;5113537;28;20553;-45
2021/03/12 09:43:16;;;;;;;4.40;2.05;;;;;;;15.61;26.01;93610.19;5113488;28;20019;-48
2021/03/12 09:45:47;;;;;;;2.47;1.58;;;;;;;15.19;26.59;93613.84;5113274;28;20086;-48
2021/03/12 09:48:13;;;;;;;3.22;2.55;;;;;;;16.10;25.75;93614.63;5113329;28;20523;-45
2021/03/12 09:50:38;;;;;;;3.58;2.53;;;;;;;16.20;26.86;93609.84;5113516;28;20028;-45
2021/03/12 09:53:05;;;;;;;2.30;2.10;;;;;;;16.97;25.69;93614.25;5113391;28;20015;-46
2021/03/12 09:55:36;;;;;;;6.35;2.75;;;;;;;17.61;26.12;93607.00;5095179;28;20084;-46
2021/03/12 09:58:11;;;;;;;4.63;2.67;;;;;;;17.05;25.05;93589.72;5113344;28;20020;-46
2021/03/12 10:00:37;;;;;;;2.58;1.88;;;;;;;16.66;27.01;93588.25;5113130;28;20031;-47
2021/03/12 10:03:03;;;;;;;3.63;2.47;;;;;;;17.26;25.18;93583.56;5113115;28;20051;-46
2021/03/12 10:05:29;;;;;;;2.90;1.65;;;;;;;16.42;24.61;93589.19;5113029;28;20100;-47
2021/03/12 10:08:00;;;;;;;3.67;2.13;;;;;;;15.67;26.47;93602.28;5112950;28;20022;-46
2021/03/12 10:10:28;;;;;;;1.70;1.35;;;;;;;14.89;27.83;93611.44;5113166;28;20061;-46
2021/03/12 10:12:55;;;;;;;5.22;2.70;;;;;;;13.82;28.69;93598.34;5112990;28;20031;-45
2021/03/12 10:15:22;;;;;;;3.35;2.60;;;;;;;14.34;31.12;93599.94;5112892;28;20476;-45
2021/03/12 10:17:48;;;;;;;3.42;2.40;;;;;;;15.73;28.74;93591.63;5111337;28;20027;-45
2021/03/12 10:20:19;;;;;;;3.75;1.85;;;;;;;17.15;26.88;93589.72;5112777;28;20023;-45
2021/03/12 10:22:53;;;;;;;10.80;1.80;;;;;;;18.06;24.39;93597.59;5112718;28;20022;-48
2021/03/12 10:25:26;;;;;;;2.40;1.45;;;;;;;18.52;24.79;93607.69;5112633;28;20031;-46
2021/03/12 10:27:58;;;;;;;2.63;1.85;;;;;;;18.95;23.24;93600.78;5112746;28;20492;-47
2021/03/12 10:30:56;;;;;;;3.55;2.65;;;;;;;18.85;22.99;93602.94;5111552;28;20110;-44
2021/03/12 10:33:23;;;;;;;5.93;2.72;;;;;;;18.38;23.62;93596.28;5024788;28;20043;-45
2021/03/12 10:35:51;;;;;;;2.08;1.65;;;;;;;18.68;22.45;93583.63;5112365;28;20027;-47
2021/03/12 10:38:22;;;;;;;1.55;1.35;;;;;;;18.88;21.05;93574.47;5112588;28;20020;-45
2021/03/12 10:40:52;;;;;;;1.80;1.63;;;;;;;18.12;22.94;93575.69;5112487;28;20024;-49
2021/03/12 10:43:28;;;;;;;2.08;1.58;;;;;;;19.03;22.44;93581.00;5112334;28;20496;-47
2021/03/12 10:45:55;;;;;;;2.58;2.00;;;;;;;19.20;21.00;93581.44;5112334;28;20044;-46
2021/03/12 10:48:26;;;;;;;2.35;1.75;;;;;;;18.77;21.68;93580.03;5112232;28;20420;-45
2021/03/12 10:50:57;;;;;;;4.55;2.13;;;;;;;18.26;22.83;93577.97;5112350;28;20023;-47
2021/03/12 10:53:23;;;;;;;2.83;1.95;;;;;;;18.33;23.70;93588.94;5111416;28;20412;-47
2021/03/12 10:55:59;;;;;;;3.42;1.77;;;;;;;18.99;23.13;93567.50;5111259;28;20019;-46
2021/03/12 10:58:27;;;;;;;2.45;2.25;;;;;;;19.02;21.97;93555.09;5112111;28;20077;-47
2021/03/12 11:01:09;;;;;;;2.85;2.03;;;;;;;18.62;23.25;93549.66;5112270;28;20420;-46
2021/03/12 11:03:35;;;;;;;4.07;2.13;;;;;;;19.32;22.16;93543.03;5112151;28;20062;-47
2021/03/12 11:06:01;;;;;;;3.08;2.10;;;;;;;19.49;22.67;93544.81;5112107;28;20055;-45
2021/03/12 11:08:27;;;;;;;4.50;2.55;;;;;;;19.36;21.76;93539.78;5112162;28;20401;-46
2021/03/12 11:10:54;;;;;;;5.45;2.92;;;;;;;19.26;21.89;93547.50;5112270;28;20027;-45
2021/03/12 11:13:20;;;;;;;4.50;2.85;;;;;;;19.30;21.46;93551.28;5111797;28;20019;-46
2021/03/12 11:15:46;;;;;;;6.22;3.90;;;;;;;19.44;22.24;93545.88;5112032;28;20468;-46
2021/03/12 11:18:11;;;;;;;4.57;2.40;;;;;;;18.85;22.59;93546.97;5111887;28;20448;-47
2021/03/12 11:20:37;;;;;;;4.75;3.05;;;;;;;19.00;22.92;93535.38;5111871;28;20106;-46
2021/03/12 11:23:02;;;;;;;7.05;3.50;;;;;;;18.80;22.82;93522.88;5112171;28;20016;-48
2021/03/12 11:25:28;;;;;;;2.78;2.55;;;;;;;18.92;22.32;93518.81;5111943;28;20080;-47
2021/03/12 11:27:53;;;;;;;3.65;2.38;;;;;;;18.82;24.03;93520.94;5112048;28;20492;-47
2021/03/12 11:30:20;;;;;;;3.92;2.55;;;;;;;19.23;22.60;93524.25;5093593;28;20046;-48
2021/03/12 11:32:46;;;;;;;3.47;2.70;;;;;;;18.57;24.31;93522.75;5111854;28;20028;-45
2021/03/12 11:35:15;;;;;;;4.78;2.13;;;;;;;18.82;24.06;93520.94;5111789;28;20045;-45
2021/03/12 11:37:41;;;;;;;2.67;1.83;;;;;;;18.24;24.92;93503.09;5111766;28;20046;-45